Latest Weather Observations for Sellicks Hill

IDS60801

Issued at 4:35 pm CDT Friday 31 October 2014 (issued every 30 minutes, with the page automatically refreshed every 10 minutes)

About weather observations | Map of weather stations | Latest weather observations for SA | Other Formats
Station Details ID: 023886 Name: MOUNT TERRIBLE RADAR Lat: -35.33 Lon: 138.50 Height: 385.7 m
Data from the previous 72 hours. | See also: Recent months for locations in South Australia
Date/Time
CDT
Temp
°C
App
Temp
°C
Dew
Point
Rel
Hum
%
Delta-T
°C
Wind Press
QNH
hPa
Press
MSL
hPa
Rain
since 9 am
mm
Dir
 
Spd
km/h
Gust
km/h
Spd
kts
Gust
kts
31/04:30pm - - - - - W 9 26 5 14 - - -
31/04:00pm - - - - - W 7 15 4 8 - - -
31/03:30pm - - - - - WNW 7 17 4 9 - - -
31/03:00pm - - - - - WNW 11 24 6 13 - - -
31/02:30pm - - - - - WNW 11 20 6 11 - - -
31/02:00pm - - - - - W 7 15 4 8 - - -
31/01:30pm - - - - - WNW 13 30 7 16 - - -
31/01:00pm - - - - - NNW 24 37 13 20 - - -
31/12:30pm - - - - - NNW 22 41 12 22 - - -
31/12:00pm - - - - - NNW 28 46 15 25 - - -
31/11:59am - - - - - N 28 46 15 25 - - -
31/11:30am - - - - - NNW 22 39 12 21 - - -
31/11:00am - - - - - N 19 32 10 17 - - -
31/10:30am - - - - - N 19 33 10 18 - - -
31/10:00am - - - - - N 15 28 8 15 - - -
31/09:30am - - - - - N 11 28 6 15 - - -
31/09:00am - - - - - N 11 20 6 11 - - -
31/08:30am - - - - - N 13 32 7 17 - - -
31/08:00am - - - - - N 11 24 6 13 - - -
31/07:30am - - - - - N 11 17 6 9 - - -
31/07:00am - - - - - N 13 28 7 15 - - -
31/06:30am - - - - - NNE 11 26 6 14 - - -
31/06:00am - - - - - NNE 11 26 6 14 - - -
31/05:30am - - - - - NNE 9 17 5 9 - - -
31/05:00am - - - - - NNE 11 24 6 13 - - -
31/04:30am - - - - - NNE 9 22 5 12 - - -
31/04:00am - - - - - NNE 9 22 5 12 - - -
31/03:30am - - - - - NE 11 20 6 11 - - -
31/03:00am - - - - - NE 13 19 7 10 - - -
31/02:30am - - - - - E 19 26 10 14 - - -
31/02:00am - - - - - E 20 30 11 16 - - -
31/01:30am - - - - - E 19 28 10 15 - - -
31/01:00am - - - - - E 13 17 7 9 - - -
31/12:30am - - - - - E 13 19 7 10 - - -
31/12:00am - - - - - E 11 17 6 9 - - -
 
Date/Time
CDT
Temp
°C
App
Temp
°C
Dew
Point
Rel
Hum
%
Delta-T
°C
Wind Press
QNH
hPa
Press
MSL
hPa
Rain
since 9 am
mm
Dir
 
Spd
km/h
Gust
km/h
Spd
kts
Gust
kts
30/11:30pm - - - - - ESE 15 17 8 9 - - -
30/11:00pm - - - - - ESE 11 15 6 8 - - -
30/10:30pm - - - - - ESE 9 15 5 8 - - -
30/10:00pm - - - - - E 4 6 2 3 - - -
30/09:30pm - - - - - CALM 0 4 0 2 - - -
30/09:00pm - - - - - ENE 2 6 1 3 - - -
30/08:30pm - - - - - ESE 6 9 3 5 - - -
30/08:00pm - - - - - SE 13 17 7 9 - - -
30/07:30pm - - - - - SE 13 15 7 8 - - -
30/07:00pm - - - - - SSE 11 13 6 7 - - -
30/06:30pm - - - - - SE 4 7 2 4 - - -
30/06:00pm - - - - - ESE 4 7 2 4 - - -
30/05:30pm - - - - - WNW 6 9 3 5 - - -
30/05:00pm - - - - - NNW 4 7 2 4 - - -
30/04:30pm - - - - - W 4 7 2 4 - - -
30/04:00pm - - - - - WNW 7 13 4 7 - - -
30/03:30pm - - - - - W 6 9 3 5 - - -
30/03:00pm - - - - - WNW 9 13 5 7 - - -
30/02:30pm - - - - - NW 7 15 4 8 - - -
30/02:00pm - - - - - NNW 7 11 4 6 - - -
30/01:30pm - - - - - NNW 6 13 3 7 - - -
30/01:00pm - - - - - WNW 7 15 4 8 - - -
30/12:30pm - - - - - WNW 6 9 3 5 - - -
30/12:00pm - - - - - WNW 7 13 4 7 - - -
30/11:30am - - - - - WNW 6 11 3 6 - - -
30/11:00am - - - - - WNW 6 13 3 7 - - -
30/10:30am - - - - - NNW 7 15 4 8 - - -
30/10:00am - - - - - NE 6 9 3 5 - - -
30/09:30am - - - - - SE 6 13 3 7 - - -
30/09:00am - - - - - ENE 6 7 3 4 - - -
30/08:30am - - - - - SSE 6 7 3 4 - - -
30/08:00am - - - - - SSE 9 11 5 6 - - -
30/07:30am - - - - - SSE 11 13 6 7 - - -
30/07:00am - - - - - SSE 9 11 5 6 - - -
30/06:30am - - - - - S 11 13 6 7 - - -
30/06:00am - - - - - ESE 4 6 2 3 - - -
30/05:30am - - - - - E 6 7 3 4 - - -
30/05:00am - - - - - ESE 7 11 4 6 - - -
30/04:30am - - - - - SSE 9 11 5 6 - - -
30/04:00am - - - - - SE 7 9 4 5 - - -
30/03:30am - - - - - ESE 7 7 4 4 - - -
30/03:00am - - - - - E 9 15 5 8 - - -
30/02:30am - - - - - ESE 11 15 6 8 - - -
30/02:00am - - - - - SE 13 15 7 8 - - -
30/01:30am - - - - - SE 15 17 8 9 - - -
30/01:00am - - - - - SE 17 20 9 11 - - -
30/12:30am - - - - - SE 17 19 9 10 - - -
30/12:00am - - - - - SSE 19 19 10 10 - - -
 
Date/Time
CDT
Temp
°C
App
Temp
°C
Dew
Point
Rel
Hum
%
Delta-T
°C
Wind Press
QNH
hPa
Press
MSL
hPa
Rain
since 9 am
mm
Dir
 
Spd
km/h
Gust
km/h
Spd
kts
Gust
kts
29/11:30pm - - - - - SSE 19 22 10 12 - - -
29/11:00pm - - - - - SSE 19 20 10 11 - - -
29/10:30pm - - - - - SSE 17 22 9 12 - - -
29/10:00pm - - - - - SSE 19 22 10 12 - - -
29/09:30pm - - - - - SSE 20 24 11 13 - - -
29/09:00pm - - - - - SSE 22 26 12 14 - - -
29/08:30pm - - - - - SSE 20 24 11 13 - - -
29/08:00pm - - - - - SSE 20 26 11 14 - - -
29/07:30pm - - - - - SSE 19 22 10 12 - - -
29/07:00pm - - - - - SW 4 11 2 6 - - -
29/06:30pm - - - - - WSW 2 9 1 5 - - -
29/06:00pm - - - - - W 4 9 2 5 - - -
29/05:30pm - - - - - W 6 15 3 8 - - -
29/05:00pm - - - - - W 7 13 4 7 - - -
29/04:30pm - - - - - WNW 7 17 4 9 - - -
29/04:00pm - - - - - NW 9 17 5 9 - - -
29/03:30pm - - - - - NW 7 15 4 8 - - -
29/03:00pm - - - - - NNW 9 17 5 9 - - -
29/02:30pm - - - - - NNW 13 24 7 13 - - -
29/02:00pm - - - - - NNW 9 20 5 11 - - -
29/01:30pm - - - - - NW 9 19 5 10 - - -
29/01:00pm - - - - - NW 11 17 6 9 - - -
29/12:30pm - - - - - NW 9 15 5 8 - - -
29/12:00pm - - - - - NW 7 17 4 9 - - -
29/11:30am - - - - - NW 9 20 5 11 - - -
29/11:00am - - - - - NW 7 11 4 6 - - -
29/10:30am - - - - - NW 6 11 3 6 - - -
29/10:00am - - - - - NW 7 11 4 6 - - -
29/09:30am - - - - - NW 7 13 4 7 - - -
29/09:00am - - - - - NW 4 7 2 4 - - -
29/08:30am - - - - - WNW 4 9 2 5 - - -
29/08:00am - - - - - WNW 4 7 2 4 - - -
29/07:30am - - - - - WNW 2 6 1 3 - - -
29/07:00am - - - - - CALM 0 0 0 0 - - -
29/06:30am - - - - - WSW 2 4 1 2 - - -
29/06:00am - - - - - CALM 0 0 0 0 - - -
29/05:30am - - - - - CALM 0 0 0 0 - - -
29/05:00am - - - - - W 2 6 1 3 - - -
29/04:30am - - - - - CALM 0 0 0 0 - - -
29/04:00am - - - - - CALM 0 0 0 0 - - -
29/03:30am - - - - - W 2 6 1 3 - - -
29/03:00am - - - - - CALM 0 4 0 2 - - -
29/02:30am - - - - - S 2 4 1 2 - - -
29/02:00am - - - - - SSE 4 6 2 3 - - -
29/01:30am - - - - - SSE 9 9 5 5 - - -
29/01:00am - - - - - SE 9 11 5 6 - - -
29/12:30am - - - - - SE 9 11 5 6 - - -
29/12:00am - - - - - SE 11 13 6 7 - - -
 
Date/Time
CDT
Temp
°C
App
Temp
°C
Dew
Point
Rel
Hum
%
Delta-T
°C
Wind Press
QNH
hPa
Press
MSL
hPa
Rain
since 9 am
mm
Dir
 
Spd
km/h
Gust
km/h
Spd
kts
Gust
kts
28/11:30pm - - - - - SE 13 15 7 8 - - -
28/11:00pm - - - - - SE 13 15 7 8 - - -
28/10:30pm - - - - - SSE 15 17 8 9 - - -
28/10:00pm - - - - - SSE 17 17 9 9 - - -
28/09:30pm - - - - - SSE 13 15 7 8 - - -
28/09:00pm - - - - - SSE 11 13 6 7 - - -
28/08:30pm - - - - - WSW 2 4 1 2 - - -
28/08:00pm - - - - - SW 2 4 1 2 - - -
28/07:30pm - - - - - W 6 11 3 6 - - -
28/07:00pm - - - - - W 4 11 2 6 - - -
28/06:30pm - - - - - W 7 15 4 8 - - -
28/06:00pm - - - - - W 9 22 5 12 - - -
28/05:30pm - - - - - W 11 22 6 12 - - -
28/05:00pm - - - - - WNW 11 24 6 13 - - -

Other Formats:

Comma delimited format used in spreadsheet applications
http://www.bom.gov.au/fwo/IDS60801/IDS60801.95679.axf

JavaScript Object Notation format (JSON) in row-major order
http://www.bom.gov.au/fwo/IDS60801/IDS60801.95679.json